Latest Coastal Weather Observations for Yarram Airport

IDV60701

Issued at 5:51 am EDT Monday 27 March 2017 (issued every 10 minutes, with the page automatically refreshed every 10 minutes)

About coastal observations | Map of coastal stations | Coastal observations for VIC | Marine services | Other Formats
Station Details ID: 085151 Name: YARRAM AIRPORT Lat: -38.56 Lon: 146.75 Height: 17.9 m
Data from the previous 72 hours. | See also: Recent months at Yarram Airport
Date/Time
EDT
Temp
°C
Wind Pressure Rain since
9am
mm
Weather Cloud Vis
km
Sea
Height
m
Swell
Dir  Spd
kts
Gust
kts
hPa Trend Height
m
Period
s
Dir
27/05:30am 19.4 ENE 7 10 1006.8 - 0.0 - - - - - - -
27/05:00am 19.7 NE 8 10 1007.0 - 0.0 - - - - - - -
27/04:30am 18.5 NE 9 11 1006.9 - 0.0 - - - - - - -
27/04:00am 17.7 NE 7 9 1007.5 - 0.0 - - - - - - -
27/03:30am 17.5 NE 7 9 1008.4 - 0.0 - - - - - - -
27/03:00am 17.3 ENE 7 10 1009.1 - 0.0 - - - - - - -
27/02:30am 17.5 NE 7 11 1009.7 - 0.0 - - - - - - -
27/02:00am 17.4 NNE 6 8 1010.3 - 0.0 - - - - - - -
27/01:30am 17.4 NE 6 8 1010.6 - 0.0 - - - - - - -
27/01:00am 17.4 ENE 4 6 1011.2 - 0.0 - - - - - - -
27/12:30am 17.6 NE 6 9 1011.8 - 0.0 - - - - - - -
27/12:00am 17.5 NE 7 11 1012.3 - 0.0 - - - - - - -
 
Date/Time
EDT
Temp
°C
Wind Pressure Rain since
9am
mm
Weather Cloud Vis
km
Sea
Height
m
Swell
Dir  Spd
kts
Gust
kts
hPa Trend Height
m
Period
s
Dir
26/11:30pm 17.4 NE 7 11 1012.8 - 0.0 - - - - - - -
26/11:00pm 17.3 ENE 6 9 1013.3 - 0.0 - - - - - - -
26/10:30pm 17.2 NE 7 8 1013.7 - 0.0 - - - - - - -
26/10:00pm 17.3 ENE 6 8 1013.9 - 0.0 - - - - - - -
26/09:30pm 17.4 NE 6 8 1014.1 - 0.0 - - - - - - -
26/09:00pm 17.4 ENE 5 6 1013.9 - 0.0 - - - - - - -
26/08:30pm 17.6 ENE 4 5 1013.8 - 0.0 - - - - - - -
26/08:00pm 18.0 ENE 4 5 1013.7 - 0.0 - - - - - - -
26/07:30pm 18.7 E 5 7 1013.4 - 0.0 - - - - - - -
26/07:00pm 19.6 E 5 7 1013.4 - 0.0 - - - - - - -
26/06:30pm 20.3 E 6 8 1013.3 - 0.0 - - - - - - -
26/06:00pm 20.8 ESE 7 9 1013.2 - 0.0 - - - - - - -
26/05:30pm 21.3 E 7 9 1013.2 - 0.0 - - - - - - -
26/05:00pm 21.8 E 7 11 1013.0 - 0.0 - - - - - - -
26/04:30pm 22.7 E 7 11 1013.1 - 0.0 - - - - - - -
26/04:00pm 22.1 ESE 7 11 1013.2 - 0.0 - - - - - - -
26/03:30pm 22.5 SE 10 13 1013.3 - 0.0 - - - - - - -
26/03:00pm 23.0 SE 9 13 1013.4 - 0.0 - - - - - - -
26/02:30pm 22.8 ESE 7 12 1013.6 - 0.0 - - - - - - -
26/02:00pm 22.4 ESE 8 13 1013.9 - 0.0 - - - - - - -
26/01:30pm 24.0 SSE 5 10 1014.3 - 0.0 - - - - - - -
26/01:00pm 22.9 SSE 7 9 1014.8 - 0.0 - - - - - - -
26/12:30pm 22.9 S 5 10 1015.3 - 0.0 - - - - - - -
26/12:00pm 23.2 ESE 3 8 1015.4 - 0.0 - - - - - - -
26/11:30am 22.2 SW 3 6 1015.5 - 0.0 - - - - - - -
26/11:00am 21.7 WSW 4 8 1015.8 - 0.0 - - - - - - -
26/10:30am 20.8 SSW 4 7 1015.8 - 0.0 - - - - - - -
26/10:00am 19.7 WSW 5 7 1015.7 - 0.0 - - - - - - -
26/09:30am 19.1 CALM 0 3 1015.6 - 0.0 - - - - - - -
26/09:00am 18.0 WNW 4 5 1015.2 - 4.2 - - - - - - -
26/08:30am 16.9 W 4 5 1015.0 - 4.2 - - - - - - -
26/08:00am 16.1 SW 8 8 1014.7 - 4.2 - - - - - - -
26/07:30am 16.0 WSW 6 7 1014.5 - 4.2 - - - - - - -
26/07:00am 15.5 WSW 4 6 1014.1 - 4.2 - - - - - - -
26/06:30am 15.3 WSW 3 4 1013.8 - 4.2 - - - - - - -
26/06:00am 15.9 WSW 6 7 1013.5 - 4.2 - - - - - - -
26/05:30am 15.5 WSW 6 6 1013.1 - 4.2 - - - - - - -
26/05:00am 15.6 WNW 5 6 1012.9 - 4.2 - - - - - - -
26/04:30am 15.7 W 4 5 1012.9 - 4.2 - - - - - - -
26/04:00am 16.0 SW 3 4 1012.9 - 4.2 - - - - - - -
26/03:30am 16.2 CALM 0 0 1013.0 - 4.2 - - - - - - -
26/03:00am 16.8 CALM 0 0 1013.1 - 4.2 - - - - - - -
26/02:30am 17.4 W 2 4 1013.2 - 4.2 - - - - - - -
26/02:00am 17.6 CALM 0 0 1013.1 - 4.2 - - - - - - -
26/01:30am 18.2 W 5 7 1013.0 - 4.2 - - - - - - -
26/01:00am 18.6 WSW 8 11 1013.0 - 4.2 - - - - - - -
26/12:30am 18.5 WSW 6 9 1013.0 - 4.2 - - - - - - -
26/12:00am 18.8 W 5 6 1012.8 - 4.2 - - - - - - -
 
Date/Time
EDT
Temp
°C
Wind Pressure Rain since
9am
mm
Weather Cloud Vis
km
Sea
Height
m
Swell
Dir  Spd
kts
Gust
kts
hPa Trend Height
m
Period
s
Dir
25/11:30pm 18.7 WSW 6 7 1013.1 - 4.2 - - - - - - -
25/11:00pm 19.2 N 5 7 1012.7 - 4.2 - - - - - - -
25/10:30pm 19.4 NW 3 4 1012.9 - 4.2 - - - - - - -
25/10:00pm 19.5 NNE 4 5 1012.8 - 4.2 - - - - - - -
25/09:30pm 20.0 N 3 4 1012.7 - 4.2 - - - - - - -
25/09:00pm 20.5 NE 5 6 1012.3 - 4.2 - - - - - - -
25/08:30pm 20.0 NE 6 7 1012.0 - 4.2 - - - - - - -
25/08:00pm 20.0 NE 5 6 1011.7 - 4.2 - - - - - - -
25/07:30pm 20.4 ENE 6 7 1011.5 - 4.2 - - - - - - -
25/07:00pm 21.4 NE 4 5 1011.3 - 4.2 - - - - - - -
25/06:30pm 22.4 NE 7 9 1011.1 - 4.2 - - - - - - -
25/06:00pm 22.7 ENE 7 10 1011.0 - 4.2 - - - - - - -
25/05:30pm 23.3 ENE 6 8 1011.0 - 4.2 - - - - - - -
25/05:00pm 23.1 NE 7 11 1010.9 - 4.2 - - - - - - -
25/04:30pm 23.4 ENE 8 11 1010.8 - 4.2 - - - - - - -
25/04:00pm 22.2 E 6 9 1010.9 - 4.2 - - - - - - -
25/03:30pm 26.5 ESE 5 9 1010.6 - 0.0 - - - - - - -
25/03:00pm 27.4 ENE 3 7 1011.0 - 0.0 - - - - - - -
25/02:30pm 26.2 ENE 5 8 1011.2 - 0.0 - - - - - - -
25/02:00pm 25.9 ENE 5 8 1011.6 - 0.0 - - - - - - -
25/01:30pm 24.8 ESE 4 7 1012.0 - 0.0 - - - - - - -
25/01:00pm 23.6 ENE 3 5 1012.5 - 0.0 - - - - - - -
25/12:30pm 20.9 NNE 4 6 1013.0 - 0.0 - - - - - - -
25/12:00pm 19.8 CALM 0 0 1013.4 - 0.0 - - - - - - -
25/11:30am 19.1 SE 3 6 1013.6 - 0.0 - - - - - - -
25/11:00am 18.6 E 4 7 1013.7 - 0.0 - - - - - - -
25/10:30am 18.4 W 1 4 1013.8 - 0.0 - - - - - - -
25/10:00am 17.8 CALM 0 0 1013.6 - 0.0 - - - - - - -
25/09:30am 17.3 CALM 0 0 1013.3 - 0.0 - - - - - - -
25/09:00am 16.3 NW 3 5 1013.1 - 0.0 - - - - - - -
25/08:30am 15.4 N 3 4 1012.9 - 0.0 - - - - - - -
25/08:00am 14.9 CALM 0 1 1012.8 - 0.0 - - - - - - -
25/07:30am 14.7 WSW 4 5 1012.7 - 0.0 - - - - - - -
25/07:00am 14.9 WSW 4 5 1012.5 - 0.0 - - - - - - -
25/06:30am 15.0 NNW 3 4 1012.3 - 0.0 - - - - - - -
25/06:00am 15.5 N 4 6 1012.3 - 0.0 - - - - - - -
25/05:30am 15.4 ENE 5 8 1012.1 - 0.0 - - - - - - -
25/05:00am 15.2 E 4 6 1012.4 - 0.0 - - - - - - -
25/04:30am 15.1 NE 5 6 1012.8 - 0.0 - - - - - - -
25/04:00am 14.9 NE 2 5 1013.5 - 0.0 - - - - - - -
25/03:30am 14.9 CALM 0 0 1014.2 - 0.0 - - - - - - -
25/03:00am 15.2 CALM 0 0 1014.6 - 0.0 - - - - - - -
25/02:30am 15.4 NE 3 4 1015.0 - 0.0 - - - - - - -
25/02:00am 16.0 NE 5 7 1015.2 - 0.0 - - - - - - -
25/01:30am 16.3 ENE 4 5 1015.6 - 0.0 - - - - - - -
25/01:00am 16.6 NE 6 8 1016.0 - 0.0 - - - - - - -
25/12:30am 17.1 NE 7 11 1016.3 - 0.0 - - - - - - -
25/12:00am 17.3 NE 8 13 1016.8 - 0.0 - - - - - - -
 
Date/Time
EDT
Temp
°C
Wind Pressure Rain since
9am
mm
Weather Cloud Vis
km
Sea
Height
m
Swell
Dir  Spd
kts
Gust
kts
hPa Trend Height
m
Period
s
Dir
24/11:30pm 17.5 NE 9 13 1016.9 - 0.0 - - - - - - -
24/11:00pm 17.7 NE 8 13 1017.3 - 0.0 - - - - - - -
24/10:30pm 17.8 NE 8 13 1017.4 - 0.0 - - - - - - -
24/10:00pm 18.1 NE 9 13 1017.9 - 0.0 - - - - - - -
24/09:30pm 18.2 NE 9 15 1017.9 - 0.0 - - - - - - -
24/09:00pm 18.1 ENE 10 15 1017.9 - 0.0 - - - - - - -
24/08:30pm 18.1 ENE 9 16 1018.1 - 0.0 - - - - - - -
24/08:00pm 18.1 ENE 10 13 1018.4 - 0.0 - - - - - - -
24/07:30pm 18.2 ENE 11 17 1018.3 - 0.0 - - - - - - -
24/07:00pm 18.4 ENE 10 15 1018.8 - 0.0 - - - - - - -
24/06:30pm 18.5 E 11 16 1018.1 - 0.0 - - - - - - -
24/06:00pm 18.9 ENE 12 17 1018.1 - 0.0 - - - - - - -
24/05:30pm 19.2 ENE 13 19 1018.0 - 0.0 - - - - - - -
24/05:00pm 19.4 ENE 13 18 1018.2 - 0.0 - - - - - - -
24/04:30pm 19.2 ENE 14 20 1017.9 - 0.0 - - - - - - -
24/04:00pm 19.5 ENE 13 21 1018.5 - 0.0 - - - - - - -
24/03:30pm 19.5 ENE 14 21 1018.8 - 0.0 - - - - - - -
24/03:00pm 19.4 ENE 11 18 1019.6 - 0.0 - - - - - - -
24/02:30pm 19.3 ENE 11 18 1019.8 - 0.0 - - - - - - -
24/02:00pm 19.2 ENE 13 21 1020.2 - 0.0 - - - - - - -
24/01:30pm 18.8 NE 11 16 1021.0 - 0.0 - - - - - - -
24/01:00pm 19.3 ENE 12 20 1021.2 - 0.0 - - - - - - -
24/12:30pm 19.3 ENE 12 16 1021.6 - 0.0 - - - - - - -
24/12:00pm 19.0 ENE 13 21 1022.0 - 0.0 - - - - - - -
24/11:30am 19.1 ENE 12 18 1022.2 - 0.0 - - - - - - -
24/11:00am 18.9 ENE 12 18 1022.3 - 0.0 - - - - - - -
24/10:30am 19.3 ENE 12 18 1022.4 - 0.0 - - - - - - -
24/10:00am 18.8 ENE 11 17 1022.5 - 0.0 - - - - - - -
24/09:30am 18.3 ENE 11 15 1022.2 - 0.0 - - - - - - -
24/09:00am 17.4 E 11 16 1021.9 - 0.0 - - - - - - -
24/08:30am 16.9 E 9 13 1021.9 - 0.0 - - - - - - -
24/08:00am 16.5 ENE 8 12 1021.4 - 0.0 - - - - - - -
24/07:30am 15.9 ENE 8 12 1021.2 - 0.0 - - - - - - -
24/07:00am 14.9 ENE 7 10 1020.9 - 0.0 - - - - - - -
24/06:30am 13.9 ENE 5 6 1021.0 - 0.0 - - - - - - -
24/06:00am 12.5 NE 4 5 1020.9 - 0.0 - - - - - - -

Other Formats:

Comma delimited format used in spreadsheet applications
http://www.bom.gov.au/fwo/IDV60701/IDV60701.95890.axf

JavaScript Object Notation format (JSON) in row-major order
http://www.bom.gov.au/fwo/IDV60701/IDV60701.95890.json